Архив погоды в Магадане

Метеограмма Магадан
Среда, 15 Августа
Время местн. Темп Ветер Видим Явления Облачность нижн/средн/верх Атм. давл. Влжн Точка росы ВНГО R Сост. почвы Tg s
Напр Скр Прв ур.ст ур.м изм
07:00 +14.6° В 5 12 более 50 км - преимущественно облачно 756 767 +0.4 61% +7.1° 1 км 0 Сухая (без трещин) +10° -
04:00 +12.2° В,С-В 3 - 50 км - преимущественно облачно 756 766 0 75% +8° 1 км - - - -
01:00 +12.6° В 5 - 50 км - преимущественно облачно 756 766 -0.2 77% +8.7° 600 м - - - -
Вторник, 14 Августа
Время местн. Темп Ветер Видим Явления Облачность нижн/средн/верх Атм. давл. Влжн Точка росы ВНГО R Сост. почвы Tg s
Напр Скр Прв ур.ст ур.м изм
22:00 +11.9° С-В 4 - 50 км - облачно с прояснениями 756 766 +0.3 84% +9.2° 1 км - - - -
19:00 +14.2° В 4 - 50 км - преимущественно облачно 756 766 +0.8 74% +9.7° 1 км 0 - - -
16:00 +15.8° В,Ю-В 5 - 50 км - преимущественно облачно 755 765 0 70% +10.4° 1 км - - - -
13:00 +15.4° В 4 - 50 км - преимущественно облачно 755 765 +0.3 74% +10.8° 1 км - - - -
10:00 +14.1° В 4 - 50 км небо без изменений {туман} преимущественно облачно 755 765 +0.7 79% +10.5° 1 км - - - -
07:00 +11.6° В,С-В 3 - 50 км небо без изменений {туман} преимущественно облачно 754 764 +0.9 92% +10.4° 600 м 0 Сухая (без трещин) - -
04:00 +9.5° С-В 4 - 200 м туман усиливается неба не видно 753 764 +0.7 100% +9.5° - - - - -
01:00 +10.5° С-В 2 - 50 км - преимущественно облачно 752 763 +0.6 93% +9.4° 600 м - - - -
Понедельник, 13 Августа
Время местн. Темп Ветер Видим Явления Облачность нижн/средн/верх Атм. давл. Влжн Точка росы ВНГО R Сост. почвы Tg s
Напр Скр Прв ур.ст ур.м изм
22:00 +11.4° Ю-З 2 - более 50 км - преимущественно облачно 752 762 +0.8 93% +10.3° 600 м - - - -
19:00 +12.7° З 4 - 50 км - преимущественно облачно 751 761 +0.7 89% +11° 1 км 0 - - -
16:00 +14.4° З 5 - 50 км - преимущественно облачно 750 761 +0.2 81% +11.2° 1 км - - - -
13:00 +14.2° З 4 - 50 км - преимущественно облачно 750 760 -0.2 83% +11.3° 1 км - - - -
10:00 +13.2° З 2 - 50 км - облачно 750 761 +0.2 88% +11.3° 600 м - - - -
07:00 +10.7° В 2 - 50 км - облачно 750 761 +0.1 93% +9.6° 300 м 0 Влажная (без луж) - -
04:00 +9.3° В,С-В 2 - 50 км - преимущественно облачно 750 761 -0.3 97% +8.8° 300 м - - - -
01:00 +10.8° штиль 0 - 50 км - преимущественно облачно 750 761 0 93% +9.7° 1.5 км - - - -
Воскресенье, 12 Августа
Время местн. Темп Ветер Видим Явления Облачность нижн/средн/верх Атм. давл. Влжн Точка росы ВНГО R Сост. почвы Tg s
Напр Скр Прв ур.ст ур.м изм
22:00 +12° З,Ю-З 2 - 50 км - преимущественно облачно 750 761 +0.2 92% +10.7° 1 км - - - -
19:00 +13.1° З 3 - 50 км - преимущественно облачно 750 760 +0.1 90% +11.5° 1 км 0 - - -
16:00 +14.3° З 4 - 50 км - облачно 750 760 -0.3 90% +12.6° 1.5 км - - - -
13:00 +15° З 4 - более 50 км - облачно 750 761 -0.4 88% +13.1° 1 км - - - -
10:00 +14.6° В 3 - 50 км - преимущественно облачно 751 761 +0.1 87% +12.5° 600 м - - - -
07:00 +12° В 2 - 50 км - преимущественно облачно 751 761 0 91% +10.6° 1.5 км 0 Влажная (без луж) - -
04:00 +10.3° В,С-В 2 - 50 км - преимущественно облачно 751 761 +0.1 95% +9.6° 600 м - - - -